Time;durP1;ratioP1;P1;durP2;ratioP2;P2;SDS_P1;SDS_P2;PMS_P1;PMS_P2;Temp;Humidity;BMP_temperature;BMP_pressure;BME280_temperature;BME280_humidity;BME280_pressure;Samples;Min_cycle;Max_cycle;Signal;HPM_P1;HPM_P2
2022/04/26 06:07:21;;;;;;;;;;;;;;;14.46;100.00;98108.56;5986977;23;19974;31
2022/04/26 06:09:53;;;;;;;;;;;;;;;14.72;100.00;98106.09;4866362;29;19971;-73
2022/04/26 06:12:26;;;;;;;;;;;;;;;14.72;100.00;98106.09;4883936;29;20368;-74
2022/04/26 06:14:54;;;;;;;;;;;;;;;14.90;100.00;98104.53;4884554;29;19956;-74
2022/04/26 06:17:23;;;;;;;;;;;;;;;15.18;100.00;98116.47;4885211;29;20026;-74
2022/04/26 06:19:50;;;;;;;;;;;;;;;15.38;100.00;98108.81;4883815;29;19957;-74
2022/04/26 06:22:17;;;;;;;;;;;;;;;15.29;100.00;98103.75;4884697;29;20248;-74
2022/04/26 06:24:44;;;;;;;;;;;;;;;15.63;100.00;98111.91;4885147;29;19954;-74
2022/04/26 06:27:12;;;;;;;;;;;;;;;16.01;100.00;98113.06;4885239;29;19971;-74
2022/04/26 06:29:40;;;;;;;;;;;;;;;16.09;100.00;98108.06;4867446;29;21381;-74
2022/04/26 06:32:08;;;;;;;;;;;;;;;15.90;100.00;98112.50;4884424;29;19954;-74
2022/04/26 06:34:35;;;;;;;;;;;;;;;16.10;100.00;98116.06;4872964;29;19951;-74
2022/04/26 06:37:02;;;;;;;;;;;;;;;15.92;100.00;98117.72;4879758;29;19956;-74
2022/04/26 06:39:29;;;;;;;;;;;;;;;16.10;100.00;98116.06;4877911;29;20035;-74
2022/04/26 06:41:57;;;;;;;;;;;;;;;16.21;100.00;98110.97;4883610;29;19957;-74
2022/04/26 06:44:25;;;;;;;;;;;;;;;16.50;100.00;98113.09;4881842;29;19986;-75
2022/04/26 06:46:52;;;;;;;;;;;;;;;15.94;100.00;98099.16;4879509;29;19970;-74
2022/04/26 06:49:20;;;;;;;;;;;;;;;16.21;100.00;98110.19;4882431;29;19970;-74
2022/04/26 06:51:47;;;;;;;;;;;;;;;16.51;100.00;98114.66;4883314;29;19951;-74
2022/04/26 06:54:14;;;;;;;;;;;;;;;16.61;100.00;98113.63;4882710;29;19956;-74
2022/04/26 06:56:45;;;;;;;;;;;;;;;16.56;100.00;98114.97;4882310;29;21519;-75
2022/04/26 06:59:13;;;;;;;;;;;;;;;16.53;100.00;98115.84;4883414;29;19951;-74
2022/04/26 07:01:41;;;;;;;;;;;;;;;16.68;100.00;98116.25;4882195;29;19949;-74
2022/04/26 07:04:08;;;;;;;;;;;;;;;16.80;100.00;98110.69;4882967;29;20222;-74
2022/04/26 07:06:37;;;;;;;;;;;;;;;16.35;100.00;98112.66;4882473;29;20346;-74
2022/04/26 07:09:04;;;;;;;;;;;;;;;16.67;100.00;98121.16;4883933;29;19995;-74
2022/04/26 07:11:32;;;;;;;;;;;;;;;16.82;100.00;98118.75;4883615;29;19948;-74
2022/04/26 07:13:59;;;;;;;;;;;;;;;16.78;100.00;98120.84;4883570;29;20251;-74
2022/04/26 07:16:26;;;;;;;;;;;;;;;16.91;100.00;98110.41;4883632;29;19983;-74
2022/04/26 07:18:54;;;;;;;;;;;;;;;17.07;100.00;98116.00;4884319;29;20349;-74
2022/04/26 07:21:21;;;;;;;;;;;;;;;16.84;100.00;98122.72;4882997;29;19956;-74
2022/04/26 07:23:48;;;;;;;;;;;;;;;17.16;100.00;98118.22;4883792;29;19953;-74
2022/04/26 07:26:15;;;;;;;;;;;;;;;17.05;100.00;98112.84;4882250;29;19955;-74
2022/04/26 07:28:43;;;;;;;;;;;;;;;16.96;100.00;98107.84;4882067;29;20365;-75
2022/04/26 07:31:10;;;;;;;;;;;;;;;16.96;100.00;98109.88;4883053;29;19959;-75
2022/04/26 07:36:23;;;;;;;;;;;;;;;17.22;100.00;98113.59;4877559;29;19950;-74
2022/04/26 07:38:50;;;;;;;;;;;;;;;16.81;100.00;98109.47;4881613;29;19956;-74
2022/04/26 07:41:17;;;;;;;;;;;;;;;16.62;100.00;98112.41;4880546;29;20353;-74
2022/04/26 07:43:45;;;;;;;;;;;;;;;16.81;100.00;98112.28;4872783;29;20229;-74
2022/04/26 07:46:14;;;;;;;;;;;;;;;16.87;100.00;98112.56;4874706;29;20020;-74
2022/04/26 07:48:43;;;;;;;;;;;;;;;16.85;100.00;98107.34;4880878;29;19963;-74
2022/04/26 07:51:11;;;;;;;;;;;;;;;16.93;100.00;98117.22;4880942;29;19957;-74
2022/04/26 07:53:38;;;;;;;;;;;;;;;16.91;100.00;98110.41;4872930;29;19951;-74
2022/04/26 07:56:06;;;;;;;;;;;;;;;16.94;100.00;98110.34;4879053;29;19950;-74
2022/04/26 07:58:33;;;;;;;;;;;;;;;17.03;100.00;98121.78;4879967;29;19952;-74
2022/04/26 08:01:01;;;;;;;;;;;;;;;16.76;100.00;98114.84;4877241;29;19956;-74
2022/04/26 08:03:28;;;;;;;;;;;;;;;16.58;100.00;98118.13;4878027;29;19953;-74
2022/04/26 08:05:56;;;;;;;;;;;;;;;16.49;100.00;98125.59;4886106;29;20706;-74
2022/04/26 08:08:23;;;;;;;;;;;;;;;16.25;100.00;98125.00;4882573;29;20234;-74
2022/04/26 08:10:54;;;;;;;;;;;;;;;16.54;100.00;98116.63;4881923;29;19957;-74
2022/04/26 08:13:21;;;;;;;;;;;;;;;16.95;100.00;98116.75;4882806;29;19955;-74
2022/04/26 08:15:49;;;;;;;;;;;;;;;17.01;100.00;98115.00;4882570;29;20026;-74
2022/04/26 08:18:16;;;;;;;;;;;;;;;16.93;100.00;98116.41;4883485;29;19952;-74
2022/04/26 08:20:45;;;;;;;;;;;;;;;17.06;100.00;98114.44;4882702;29;19949;-74
2022/04/26 08:23:12;;;;;;;;;;;;;;;17.24;100.00;98122.44;4878354;29;19966;-74
2022/04/26 08:28:28;;;;;;;;;;;;;;;17.42;100.00;98129.16;4882096;29;19971;-74
2022/04/26 08:30:56;;;;;;;;;;;;;;;17.60;100.00;98126.66;4879834;29;19956;-74
2022/04/26 08:33:23;;;;;;;;;;;;;;;17.46;100.00;98131.91;4879892;29;19976;-74
2022/04/26 08:35:51;;;;;;;;;;;;;;;17.32;100.00;98138.72;4874410;29;20355;-74
2022/04/26 08:38:34;;;;;;;;;;;;;;;16.96;100.00;98141.75;4881432;29;19965;-74
2022/04/26 08:41:01;;;;;;;;;;;;;;;17.13;100.00;98136.84;4877683;29;19962;-74
2022/04/26 08:43:33;;;;;;;;;;;;;;;17.06;100.00;98143.50;4865826;29;19958;-75
2022/04/26 08:46:02;;;;;;;;;;;;;;;17.03;100.00;98135.09;4882450;29;19951;-74
2022/04/26 08:51:15;;;;;;;;;;;;;;;17.28;100.00;98149.34;4881922;29;19947;-74
2022/04/26 08:53:44;;;;;;;;;;;;;;;17.35;100.00;98149.16;4881925;29;20393;-74
2022/04/26 08:56:12;;;;;;;;;;;;;;;17.44;100.00;98151.31;4881592;29;20275;-74
2022/04/26 08:58:40;;;;;;;;;;;;;;;17.09;100.00;98158.78;4882102;29;20239;-74
2022/04/26 09:01:08;;;;;;;;;;;;;;;17.12;100.00;98165.56;4882943;29;19957;-74
2022/04/26 09:03:37;;;;;;;;;;;;;;;16.86;100.00;98170.25;4886102;29;19955;-74
2022/04/26 09:06:12;;;;;;;;;;;;;;;16.75;100.00;98173.34;4886382;29;19953;-75
2022/04/26 09:08:41;;;;;;;;;;;;;;;16.78;100.00;98169.66;4885736;29;19970;-74
2022/04/26 09:11:21;;;;;;;;;;;;;;;17.11;100.00;98164.75;4885464;29;19959;-74
2022/04/26 09:13:49;;;;;;;;;;;;;;;17.15;100.00;98162.63;4886422;29;19951;-75
2022/04/26 09:16:17;;;;;;;;;;;;;;;17.30;100.00;98165.84;4879267;29;19949;-74
2022/04/26 09:18:53;;;;;;;;;;;;;;;17.29;100.00;98156.56;4884658;29;19959;-74
2022/04/26 09:21:21;;;;;;;;;;;;;;;17.06;100.00;98151.97;4878736;29;19952;-74
2022/04/26 09:23:49;;;;;;;;;;;;;;;17.12;100.00;98157.84;4885471;29;19956;-75
2022/04/26 09:26:16;;;;;;;;;;;;;;;17.15;100.00;98156.19;4868420;29;19950;-75
2022/04/26 09:28:48;;;;;;;;;;;;;;;17.42;100.00;98159.47;4872843;29;19967;-74
2022/04/26 09:31:27;;;;;;;;;;;;;;;17.58;100.00;98159.44;4880117;29;19951;-74
2022/04/26 09:33:57;;;;;;;;;;;;;;;17.91;100.00;98163.69;4878494;29;19959;-74
2022/04/26 09:36:25;;;;;;;;;;;;;;;17.56;100.00;98167.56;4885773;29;19955;-75
2022/04/26 09:38:55;;;;;;;;;;;;;;;17.58;100.00;98148.91;4878610;29;19956;-75
2022/04/26 09:41:23;;;;;;;;;;;;;;;17.81;100.00;98161.19;4873901;29;19987;-74
2022/04/26 09:43:57;;;;;;;;;;;;;;;17.70;100.00;98153.78;4880061;29;19948;-74
2022/04/26 09:46:24;;;;;;;;;;;;;;;17.74;100.00;98153.69;4871226;29;20338;-74
2022/04/26 09:48:53;;;;;;;;;;;;;;;17.90;100.00;98164.16;4877912;29;20384;-75
2022/04/26 09:51:20;;;;;;;;;;;;;;;17.79;100.00;98167.28;4879773;29;20484;-75
2022/04/26 09:53:47;;;;;;;;;;;;;;;17.64;100.00;98163.28;4881941;29;19955;-75
2022/04/26 09:56:15;;;;;;;;;;;;;;;17.48;100.00;98149.97;4884170;29;19980;-75
2022/04/26 09:58:49;;;;;;;;;;;;;;;17.34;100.00;98153.22;4882358;29;19950;-75
2022/04/26 10:01:17;;;;;;;;;;;;;;;17.35;100.00;98156.84;4876161;29;19948;-75
2022/04/26 10:03:46;;;;;;;;;;;;;;;17.45;100.00;98150.88;4880665;29;19958;-74
2022/04/26 10:06:16;;;;;;;;;;;;;;;17.35;100.00;98151.97;4880594;29;19943;-75
2022/04/26 10:08:44;;;;;;;;;;;;;;;17.39;100.00;98149.03;4884346;29;19972;-74
2022/04/26 10:11:12;;;;;;;;;;;;;;;17.33;100.00;98148.00;4883314;29;19950;-74
2022/04/26 10:13:39;;;;;;;;;;;;;;;17.37;100.00;98145.88;4882767;29;20350;-75
2022/04/26 10:16:11;;;;;;;;;;;;;;;17.35;100.00;98140.69;4882538;29;19971;-74
2022/04/26 10:18:38;;;;;;;;;;;;;;;17.43;100.00;98141.25;4882571;29;19952;-74
2022/04/26 10:21:06;;;;;;;;;;;;;;;17.43;100.00;98135.63;4870614;29;20333;-74
2022/04/26 10:24:01;;;;;;;;;;;;;;;17.32;100.00;98130.25;4881620;29;19950;-74
2022/04/26 10:26:28;;;;;;;;;;;;;;;17.39;100.00;98134.91;4876435;29;20332;-74
2022/04/26 10:28:59;;;;;;;;;;;;;;;17.45;100.00;98133.94;4878303;29;20266;-74
2022/04/26 10:31:36;;;;;;;;;;;;;;;17.43;100.00;98129.97;4877058;29;19948;-75
2022/04/26 10:34:31;;;;;;;;;;;;;;;17.49;100.00;98123.28;4879925;29;19952;-75
2022/04/26 10:37:18;;;;;;;;;;;;;;;17.55;100.00;98130.03;4882520;29;19947;-74
2022/04/26 10:39:52;;;;;;;;;;;;;;;17.62;100.00;98120.53;4851055;29;19958;-75
2022/04/26 10:42:19;;;;;;;;;;;;;;;17.66;100.00;98127.66;4869884;29;19988;-74
2022/04/26 10:44:47;;;;;;;;;;;;;;;17.66;100.00;98136.16;4884271;29;19949;-74
2022/04/26 10:47:18;;;;;;;;;;;;;;;17.77;100.00;98133.00;4879761;29;20267;-74
2022/04/26 10:49:47;;;;;;;;;;;;;;;17.69;100.00;98135.25;4877625;29;19982;-74
2022/04/26 10:52:14;;;;;;;;;;;;;;;17.64;100.00;98123.69;4879264;29;19949;-74
2022/04/26 10:54:48;;;;;;;;;;;;;;;17.64;100.00;98135.81;4882950;29;19963;-74
2022/04/26 10:57:16;;;;;;;;;;;;;;;17.58;100.00;98145.31;4884388;29;19947;-74
2022/04/26 10:59:44;;;;;;;;;;;;;;;17.56;100.00;98131.59;4883870;29;19950;-74
2022/04/26 11:02:12;;;;;;;;;;;;;;;17.52;100.00;98139.41;4883555;29;19958;-74
2022/04/26 11:04:40;;;;;;;;;;;;;;;17.43;100.00;98130.75;4879501;29;20413;-74
2022/04/26 11:07:11;;;;;;;;;;;;;;;17.34;100.00;98146.75;4882593;29;19948;-74
2022/04/26 11:09:49;;;;;;;;;;;;;;;17.42;100.00;98145.31;4882890;29;19969;-74
2022/04/26 11:12:19;;;;;;;;;;;;;;;17.42;100.00;98154.59;4874613;29;19948;-74
2022/04/26 11:14:47;;;;;;;;;;;;;;;17.31;100.00;98144.84;4866994;29;19979;-74
2022/04/26 11:17:16;;;;;;;;;;;;;;;17.35;100.00;98151.97;4879718;29;19956;-74
2022/04/26 11:19:47;;;;;;;;;;;;;;;17.22;100.00;98145.47;4875193;29;20248;-74
2022/04/26 11:22:15;;;;;;;;;;;;;;;17.35;100.00;98148.34;4877949;29;19949;-74
2022/04/26 11:30:26;;;;;;;;;;;;;;;17.52;100.00;98133.75;4887407;29;19963;-74
2022/04/26 11:32:55;;;;;;;;;;;;;;;17.47;100.00;98133.47;4888260;29;19955;-74
2022/04/26 11:35:23;;;;;;;;;;;;;;;17.77;100.00;98137.88;4862539;29;20275;-74
2022/04/26 11:37:53;;;;;;;;;;;;;;;18.15;100.00;98121.72;4868837;29;19955;-74
2022/04/26 11:40:30;;;;;;;;;;;;;;;18.35;100.00;98122.28;4878705;29;19955;-74
2022/04/26 11:43:04;;;;;;;;;;;;;;;18.69;100.00;98118.75;4889438;29;19949;-74
2022/04/26 11:45:33;;;;;;;;;;;;;;;19.01;100.00;98127.75;4872353;29;19957;-74
2022/04/26 11:48:01;;;;;;;;;;;;;;;18.98;100.00;98131.47;4882959;29;20380;-74
2022/04/26 11:50:29;;;;;;;;;;;;;;;18.88;100.00;98118.47;4883249;29;19965;-74
2022/04/26 11:53:06;;;;;;;;;;;;;;;18.74;100.00;98124.63;4869395;29;19949;-74
2022/04/26 11:55:53;;;;;;;;;;;;;;;18.53;100.00;98116.88;4869400;29;20282;-76
2022/04/26 11:58:22;;;;;;;;;;;;;;;18.30;100.00;98114.34;4877872;29;19964;-75
2022/04/26 12:00:49;;;;;;;;;;;;;;;18.24;100.00;98110.53;4871229;29;20364;-74
2022/04/26 12:03:18;;;;;;;;;;;;;;;17.97;100.00;98124.31;4869687;29;19950;-74
2022/04/26 12:05:49;;;;;;;;;;;;;;;17.86;100.00;98112.53;4879701;29;19953;-74
2022/04/26 12:08:16;;;;;;;;;;;;;;;17.85;100.00;98116.63;4881777;29;19968;-75
2022/04/26 12:10:47;;;;;;;;;;;;;;;17.85;100.00;98105.31;4882156;29;19969;-74
2022/04/26 12:13:25;;;;;;;;;;;;;;;17.87;100.00;98114.13;4880585;29;19950;-74
2022/04/26 12:15:54;;;;;;;;;;;;;;;17.79;100.00;98112.75;4880815;29;19979;-74
2022/04/26 12:18:21;;;;;;;;;;;;;;;17.70;100.00;98105.72;4882242;29;19992;-74
2022/04/26 12:21:02;;;;;;;;;;;;;;;17.86;100.00;98113.34;4881268;29;19946;-74
2022/04/26 12:23:30;;;;;;;;;;;;;;;17.80;100.00;98103.03;4880253;29;20346;-74
2022/04/26 12:26:01;;;;;;;;;;;;;;;17.84;100.00;98112.19;4881690;29;19948;-75
2022/04/26 12:28:28;;;;;;;;;;;;;;;17.76;100.00;98100.31;4880076;29;19949;-75
2022/04/26 12:30:57;;;;;;;;;;;;;;;17.71;100.00;98109.34;4880426;29;19972;-74
2022/04/26 12:33:25;;;;;;;;;;;;;;;17.71;100.00;98110.16;4879754;29;19960;-75
2022/04/26 12:36:00;;;;;;;;;;;;;;;17.68;100.00;98105.38;4877163;29;20376;-75
2022/04/26 12:38:28;;;;;;;;;;;;;;;17.73;100.00;98111.75;4880558;29;19952;-74
2022/04/26 12:41:02;;;;;;;;;;;;;;;17.73;100.00;98116.13;4878918;29;19952;-75
2022/04/26 12:43:31;;;;;;;;;;;;;;;17.85;100.00;98119.44;4882371;29;20242;-74
2022/04/26 12:46:01;;;;;;;;;;;;;;;17.87;100.00;98112.09;4882051;29;19950;-75
2022/04/26 12:51:17;;;;;;;;;;;;;;;17.78;100.00;98128.16;4881904;29;19948;-74
2022/04/26 12:53:45;;;;;;;;;;;;;;;17.71;100.00;98110.16;4877950;29;19949;-74
2022/04/26 12:56:13;;;;;;;;;;;;;;;17.94;100.00;98108.25;4882232;29;20031;-75
2022/04/26 12:58:41;;;;;;;;;;;;;;;17.88;100.00;98113.66;4881788;29;19956;-74
2022/04/26 13:01:09;;;;;;;;;;;;;;;17.92;100.00;98103.06;4871191;29;19962;-74
2022/04/26 13:03:38;;;;;;;;;;;;;;;17.89;100.00;98101.13;4879707;29;19955;-75
2022/04/26 13:06:12;;;;;;;;;;;;;;;17.83;100.00;98107.78;4874737;29;19949;-75
2022/04/26 13:08:54;;;;;;;;;;;;;;;17.93;100.00;98107.44;4880854;29;19968;-75
2022/04/26 13:11:22;;;;;;;;;;;;;;;17.89;100.00;98098.28;4878929;29;20224;-75
2022/04/26 13:13:51;;;;;;;;;;;;;;;17.73;100.00;98108.91;4873469;29;19951;-74
2022/04/26 13:16:18;;;;;;;;;;;;;;;17.88;100.00;98107.22;4873163;29;19952;-75
2022/04/26 13:18:46;;;;;;;;;;;;;;;18.02;100.00;98106.78;4879558;29;20323;-75
2022/04/26 13:21:13;;;;;;;;;;;;;;;18.16;100.00;98104.31;4866121;29;19960;-75
2022/04/26 13:23:41;;;;;;;;;;;;;;;18.08;100.00;98108.59;4879373;29;19980;-75
2022/04/26 13:26:08;;;;;;;;;;;;;;;18.19;100.00;98094.13;4881724;29;19950;-75
2022/04/26 13:28:36;;;;;;;;;;;;;;;18.31;100.00;98108.22;4876915;29;19948;-75
2022/04/26 13:31:03;;;;;;;;;;;;;;;18.21;100.00;98097.28;4874038;29;19965;-75
2022/04/26 13:33:30;;;;;;;;;;;;;;;18.18;100.00;98084.81;4867177;29;19954;-74
2022/04/26 13:35:57;;;;;;;;;;;;;;;18.27;100.00;98096.25;4878926;29;19958;-75
2022/04/26 13:38:25;;;;;;;;;;;;;;;18.20;100.00;98096.47;4874124;29;19957;-75
2022/04/26 13:40:55;;;;;;;;;;;;;;;18.23;100.00;98094.78;4881493;29;19960;-75
2022/04/26 13:43:24;;;;;;;;;;;;;;;18.24;100.00;98102.03;4880182;29;19960;-75
2022/04/26 13:46:11;;;;;;;;;;;;;;;18.25;100.00;98092.28;4881328;29;19950;-75
2022/04/26 13:48:39;;;;;;;;;;;;;;;18.24;100.00;98085.06;4882830;29;19951;-74
2022/04/26 13:51:06;;;;;;;;;;;;;;;18.26;100.00;98080.53;4875440;29;19963;-75
2022/04/26 13:53:33;;;;;;;;;;;;;;;18.26;100.00;98077.69;4882658;29;19955;-75
2022/04/26 13:56:00;;;;;;;;;;;;;;;18.16;100.00;98078.81;4885508;29;19966;-75
2022/04/26 13:58:28;;;;;;;;;;;;;;;18.20;100.00;98075.88;4885662;29;19948;-75
2022/04/26 14:00:55;;;;;;;;;;;;;;;18.25;100.00;98067.59;4881680;29;19959;-75
2022/04/26 14:03:23;;;;;;;;;;;;;;;18.27;100.00;98067.94;4883470;29;19955;-75
2022/04/26 14:05:50;;;;;;;;;;;;;;;18.37;100.00;98066.00;4882341;29;19954;-75
2022/04/26 14:08:17;;;;;;;;;;;;;;;18.29;100.00;98062.59;4882821;29;19976;-75
2022/04/26 14:23:18;;;;;;;;;;;;;;;18.17;100.00;98074.75;4883080;29;19947;-75
2022/04/26 14:25:46;;;;;;;;;;;;;;;18.22;100.00;98074.16;4884019;29;19953;-75
2022/04/26 14:28:13;;;;;;;;;;;;;;;18.29;100.00;98073.16;4884958;29;20251;-74
2022/04/26 14:30:40;;;;;;;;;;;;;;;18.16;100.00;98063.88;4883647;29;20365;-75
2022/04/26 14:33:08;;;;;;;;;;;;;;;18.07;100.00;98072.28;4884068;29;19949;-76
2022/04/26 14:35:36;;;;;;;;;;;;;;;18.11;100.00;98067.28;4877820;29;19962;-75
2022/04/26 14:38:04;;;;;;;;;;;;;;;18.12;100.00;98054.72;4883155;29;19949;-75
2022/04/26 14:40:32;;;;;;;;;;;;;;;18.00;100.00;98061.16;4883993;29;19950;-75
2022/04/26 14:43:03;;;;;;;;;;;;;;;17.91;100.00;98049.75;4883768;29;19949;-75
2022/04/26 14:45:32;;;;;;;;;;;;;;;17.84;100.00;98058.44;4883753;29;19949;-75
2022/04/26 14:48:02;;;;;;;;;;;;;;;17.81;100.00;98060.16;4883603;29;20251;-75
2022/04/26 14:50:30;;;;;;;;;;;;;;;17.79;100.00;98042.03;4882985;29;19972;-75
2022/04/26 14:52:58;;;;;;;;;;;;;;;17.81;100.00;98042.38;4883815;29;19947;-75
2022/04/26 14:55:26;;;;;;;;;;;;;;;17.72;100.00;98040.25;4883954;29;19954;-75
2022/04/26 14:57:54;;;;;;;;;;;;;;;17.79;100.00;98039.22;4883972;29;20341;-75
2022/04/26 15:00:21;;;;;;;;;;;;;;;17.81;100.00;98036.72;4883005;29;19953;-76
2022/04/26 15:02:48;;;;;;;;;;;;;;;17.71;100.00;98039.44;4883842;29;19950;-76
2022/04/26 15:05:16;;;;;;;;;;;;;;;17.69;100.00;98041.94;4884286;29;19954;-75
2022/04/26 15:10:29;;;;;;;;;;;;;;;17.58;100.00;98035.81;4880733;29;19967;-75
2022/04/26 15:19:01;;;;;;;;;;;;;;;17.53;100.00;98038.41;4877658;29;20349;-75
2022/04/26 15:21:29;;;;;;;;;;;;;;;17.44;100.00;98041.88;4882948;29;19956;-75
2022/04/26 15:23:57;;;;;;;;;;;;;;;17.43;100.00;98031.03;4877821;29;19962;-75
2022/04/26 15:26:25;;;;;;;;;;;;;;;17.36;100.00;98026.34;4873081;29;19956;-75
2022/04/26 15:28:52;;;;;;;;;;;;;;;17.29;100.00;98035.06;4874916;29;19958;-75
2022/04/26 15:31:20;;;;;;;;;;;;;;;17.21;100.00;98036.53;4881869;29;20273;-75
2022/04/26 15:33:49;;;;;;;;;;;;;;;17.23;100.00;98028.38;4883556;29;19961;-75
2022/04/26 15:36:17;;;;;;;;;;;;;;;17.28;100.00;98027.84;4882917;29;19961;-75
2022/04/26 15:38:45;;;;;;;;;;;;;;;17.19;100.00;98030.50;4882000;29;19949;-75
2022/04/26 15:41:14;;;;;;;;;;;;;;;17.18;100.00;98028.94;4882524;29;19957;-75
2022/04/26 15:43:42;;;;;;;;;;;;;;;17.14;100.00;98031.09;4882842;29;19956;-75
2022/04/26 15:46:14;;;;;;;;;;;;;;;17.11;100.00;98026.31;4882874;29;19951;-75
2022/04/26 15:48:47;;;;;;;;;;;;;;;17.14;100.00;98027.47;4872182;29;19955;-75
2022/04/26 15:51:18;;;;;;;;;;;;;;;17.08;100.00;98019.53;4878048;29;19970;-75
2022/04/26 15:53:46;;;;;;;;;;;;;;;17.00;100.00;98017.34;4879653;29;20366;-76
2022/04/26 15:56:14;;;;;;;;;;;;;;;16.99;100.00;98016.53;4871863;29;20341;-75
2022/04/26 15:58:41;;;;;;;;;;;;;;;16.95;100.00;98015.06;4882840;29;20255;-74
2022/04/26 16:01:09;;;;;;;;;;;;;;;16.95;100.00;98015.88;4881229;29;19957;-75
2022/04/26 16:03:38;;;;;;;;;;;;;;;16.92;100.00;98021.63;4881948;29;19953;-74
2022/04/26 16:06:05;;;;;;;;;;;;;;;16.91;100.00;98020.84;4882960;29;19955;-75
2022/04/26 16:08:35;;;;;;;;;;;;;;;16.80;100.00;98025.97;4880735;29;19966;-75
2022/04/26 16:22:15;;;;;;;;;;;;;;;16.65;100.00;98026.84;4876231;29;19955;-75
2022/04/26 16:24:44;;;;;;;;;;;;;;;16.55;100.00;98019.44;4880347;29;19948;-75
2022/04/26 16:27:11;;;;;;;;;;;;;;;16.50;100.00;98023.56;4882396;29;19956;-75
2022/04/26 16:29:40;;;;;;;;;;;;;;;16.52;100.00;98025.97;4874941;29;20554;-75
2022/04/26 16:32:07;;;;;;;;;;;;;;;16.44;100.00;98023.31;4866456;29;19972;-75
2022/04/26 16:34:34;;;;;;;;;;;;;;;16.53;100.00;98022.69;4871265;29;19953;-75
2022/04/26 16:37:02;;;;;;;;;;;;;;;16.43;100.00;98016.06;4876753;29;20255;-75
2022/04/26 16:39:29;;;;;;;;;;;;;;;16.42;100.00;98022.16;4882014;29;19957;-75
2022/04/26 16:41:56;;;;;;;;;;;;;;;16.41;100.00;98023.38;4880728;29;19960;-75
2022/04/26 16:44:23;;;;;;;;;;;;;;;16.37;100.00;98029.16;4881034;29;19951;-75
2022/04/26 16:46:51;;;;;;;;;;;;;;;16.27;100.00;98033.03;4882045;29;19951;-75
2022/04/26 16:49:19;;;;;;;;;;;;;;;16.26;100.00;98031.44;4879507;29;19963;-75
2022/04/26 16:51:46;;;;;;;;;;;;;;;16.20;100.00;98032.41;4877954;29;19963;-75
2022/04/26 16:54:18;;;;;;;;;;;;;;;16.20;100.00;98038.84;4882445;29;19954;-75
2022/04/26 16:56:45;;;;;;;;;;;;;;;16.19;100.00;98033.63;4880716;29;19958;-75
2022/04/26 16:59:14;;;;;;;;;;;;;;;16.14;100.00;98034.19;4880498;29;19948;-75
2022/04/26 17:01:41;;;;;;;;;;;;;;;16.14;100.00;98043.44;4871046;29;19951;-75
2022/04/26 17:04:12;;;;;;;;;;;;;;;16.04;100.00;98041.66;4874856;29;20224;-75
2022/04/26 17:06:39;;;;;;;;;;;;;;;16.00;100.00;98046.59;4873139;29;19964;-75
2022/04/26 17:09:07;;;;;;;;;;;;;;;16.04;100.00;98055.00;4881681;29;20238;-75
2022/04/26 17:11:44;;;;;;;;;;;;;;;15.94;100.00;98050.41;4879618;29;19966;-75
2022/04/26 17:14:14;;;;;;;;;;;;;;;15.90;100.00;98056.13;4880925;29;19952;-75
2022/04/26 17:16:44;;;;;;;;;;;;;;;15.86;100.00;98055.41;4881362;29;19959;-75
2022/04/26 17:19:12;;;;;;;;;;;;;;;15.83;100.00;98064.75;4872697;29;20014;-75
2022/04/26 17:21:40;;;;;;;;;;;;;;;15.84;100.00;98072.00;4881950;29;19960;-75
2022/04/26 17:25:13;;;;;;;;;;;;;;;15.70;100.00;98067.44;4885677;29;19968;-75
2022/04/26 17:26:56;;;;;;;;;;;;;;;15.65;100.00;98055.91;4885450;29;19947;-75
2022/04/26 17:29:23;;;;;;;;;;;;;;;15.69;100.00;98060.25;4885367;29;19960;-75
2022/04/26 17:31:54;;;;;;;;;;;;;;;15.63;100.00;98064.00;4883205;29;19970;-76
2022/04/26 17:34:22;;;;;;;;;;;;;;;15.52;100.00;98067.06;4878769;29;19957;-75
2022/04/26 17:36:50;;;;;;;;;;;;;;;15.56;100.00;98072.63;4883785;29;20352;-75
2022/04/26 17:39:34;;;;;;;;;;;;;;;15.45;100.00;98072.06;4884035;29;19954;-75
2022/04/26 17:42:01;;;;;;;;;;;;;;;15.49;100.00;98075.59;4884615;29;19950;-75
2022/04/26 17:44:29;;;;;;;;;;;;;;;15.35;100.00;98075.88;4880400;29;19957;-75
2022/04/26 17:46:56;;;;;;;;;;;;;;;15.29;100.00;98080.41;4883086;29;20423;-75
2022/04/26 17:49:35;;;;;;;;;;;;;;;15.27;100.00;98080.88;4883896;29;19950;-75
2022/04/26 17:52:02;;;;;;;;;;;;;;;15.22;100.00;98084.19;4882456;29;19969;-75
2022/04/26 17:57:15;;;;;;;;;;;;;;;15.07;100.00;98080.88;4885595;29;19956;-75
2022/04/26 17:59:42;;;;;;;;;;;;;;;15.09;100.00;98083.25;4868253;29;20350;-75
2022/04/26 18:02:11;;;;;;;;;;;;;;;14.99;100.00;98084.25;4878969;29;19958;-75
2022/04/26 18:04:40;;;;;;;;;;;;;;;14.91;100.00;98092.06;4883246;29;19948;-75
2022/04/26 18:07:08;;;;;;;;;;;;;;;14.90;100.00;98087.66;4884951;29;20021;-75
2022/04/26 18:09:36;;;;;;;;;;;;;;;14.86;100.00;98089.75;4882757;29;19971;-75
2022/04/26 18:12:04;;;;;;;;;;;;;;;14.83;100.00;98082.16;4883739;29;19965;-75
2022/04/26 18:14:31;;;;;;;;;;;;;;;14.78;100.00;98093.91;4882622;29;19951;-75
2022/04/26 18:16:58;;;;;;;;;;;;;;;14.72;100.00;98097.66;4884185;29;20255;-75
2022/04/26 18:19:26;;;;;;;;;;;;;;;14.67;100.00;98101.75;4882960;29;19954;-75
2022/04/26 18:21:53;;;;;;;;;;;;;;;14.71;100.00;98094.03;4883264;29;19951;-75
2022/04/26 18:24:20;;;;;;;;;;;;;;;14.62;100.00;98105.06;4884774;29;19957;-75
2022/04/26 18:26:47;;;;;;;;;;;;;;;14.58;100.00;98104.31;4881120;29;19951;-75
2022/04/26 18:29:19;;;;;;;;;;;;;;;14.52;100.00;98111.69;4883450;29;19948;-75
2022/04/26 18:31:49;;;;;;;;;;;;;;;14.52;100.00;98108.88;4877236;29;19966;-75
2022/04/26 18:34:19;;;;;;;;;;;;;;;14.48;100.00;98107.34;4884470;29;19956;-75
2022/04/26 18:36:47;;;;;;;;;;;;;;;14.43;100.00;98119.88;4873677;29;19952;-75
2022/04/26 18:39:14;;;;;;;;;;;;;;;14.34;100.00;98117.59;4881575;29;19954;-75
2022/04/26 18:41:42;;;;;;;;;;;;;;;14.34;100.00;98128.84;4880214;29;19950;-75
2022/04/26 18:44:11;;;;;;;;;;;;;;;14.26;100.00;98127.34;4878596;29;19969;-75
2022/04/26 18:46:38;;;;;;;;;;;;;;;14.29;100.00;98132.13;4876220;29;19956;-75
2022/04/26 18:49:07;;;;;;;;;;;;;;;14.23;100.00;98141.47;4878884;29;19956;-75
2022/04/26 18:51:35;;;;;;;;;;;;;;;14.23;100.00;98128.19;4882270;29;19949;-75
2022/04/26 18:54:03;;;;;;;;;;;;;;;14.16;100.00;98136.75;4880778;29;19966;-75
2022/04/26 18:56:30;;;;;;;;;;;;;;;14.14;100.00;98141.19;4883879;29;20348;-75
2022/04/26 18:58:58;;;;;;;;;;;;;;;14.01;100.00;98145.84;4878212;29;19957;-75
2022/04/26 19:01:25;;;;;;;;;;;;;;;14.02;100.00;98153.84;4881903;29;19958;-75
2022/04/26 19:03:53;;;;;;;;;;;;;;;13.99;100.00;98146.25;4883789;29;20375;-75
2022/04/26 19:06:22;;;;;;;;;;;;;;;14.00;100.00;98153.47;4874526;29;19953;-75
2022/04/26 19:08:49;;;;;;;;;;;;;;;14.02;100.00;98153.03;4877600;29;19971;-75
2022/04/26 19:14:03;;;;;;;;;;;;;;;14.00;100.00;98158.28;4872588;29;19957;-75
2022/04/26 19:16:30;;;;;;;;;;;;;;;14.04;100.00;98154.22;4881293;29;19952;-74
2022/04/26 19:18:58;;;;;;;;;;;;;;;13.99;100.00;98148.25;4880753;29;19956;-74
2022/04/26 19:21:25;;;;;;;;;;;;;;;13.99;100.00;98145.44;4882821;29;19950;-75
2022/04/26 19:23:52;;;;;;;;;;;;;;;13.96;100.00;98155.56;4884102;29;19952;-75
2022/04/26 19:26:20;;;;;;;;;;;;;;;13.97;100.00;98154.31;4875077;29;19952;-74
2022/04/26 19:28:49;;;;;;;;;;;;;;;14.01;100.00;98157.09;4883393;29;19947;-75
